Time;durP1;ratioP1;P1;durP2;ratioP2;P2;SDS_P1;SDS_P2;PMS_P1;PMS_P2;Temp;Humidity;BMP_temperature;BMP_pressure;BME280_temperature;BME280_humidity;BME280_pressure;Samples;Min_cycle;Max_cycle;Signal;HPM_P1;HPM_P2
2022/11/29 00:01:28;;;;;;;;;7.00;6.33;;;;;11.08;69.80;101060.47;5097254;27;45288;-55
2022/11/29 00:03:54;;;;;;;;;7.33;6.33;;;;;11.06;69.51;101064.25;5097377;27;45664;-56
2022/11/29 00:06:27;;;;;;;;;3.00;2.67;;;;;10.94;70.07;101045.75;5096844;27;47162;-57
2022/11/29 00:08:54;;;;;;;;;6.00;5.00;;;;;11.03;69.92;101060.03;5097117;27;45193;-55
2022/11/29 00:14:09;;;;;;;;;3.00;3.00;;;;;11.00;70.10;101065.66;5097373;27;45380;-56
2022/11/29 00:16:35;;;;;;;;;7.33;4.33;;;;;10.99;70.01;101071.94;5096862;27;46079;-58
2022/11/29 00:19:01;;;;;;;;;5.00;4.33;;;;;10.89;70.31;101061.31;5097079;27;45338;-57
2022/11/29 00:21:27;;;;;;;;;5.00;4.33;;;;;10.92;69.95;101065.53;5097164;27;45658;-57
2022/11/29 00:23:52;;;;;;;;;6.00;4.33;;;;;10.94;69.95;101068.88;5097180;27;45446;-57
2022/11/29 00:26:18;;;;;;;;;4.33;4.33;;;;;10.91;69.97;101063.81;5097093;27;46398;-55
2022/11/29 00:28:43;;;;;;;;;6.67;6.33;;;;;10.91;70.11;101064.69;5096848;27;45328;-58
2022/11/29 00:31:17;;;;;;;;;5.33;2.33;;;;;10.88;70.06;101067.63;5097023;27;45340;-51
2022/11/29 00:33:42;;;;;;;;;10.00;3.00;;;;;10.88;69.88;101074.78;5096981;27;45632;-51
2022/11/29 00:36:08;;;;;;;;;4.00;3.00;;;;;10.88;70.41;101066.78;5096707;27;46174;-49
2022/11/29 00:38:33;;;;;;;;;5.33;5.33;;;;;10.87;70.33;101071.28;5096678;27;45448;-58
2022/11/29 00:40:59;;;;;;;;;8.33;3.00;;;;;10.86;70.63;101071.41;5095975;27;45413;-57
2022/11/29 00:43:24;;;;;;;;;7.00;5.00;;;;;10.83;70.49;101072.53;5098159;27;45177;-59
2022/11/29 00:45:49;;;;;;;;;5.00;5.00;;;;;10.86;70.80;101074.06;5099910;27;45267;-53
2022/11/29 00:48:15;;;;;;;;;7.00;4.33;;;;;10.84;70.48;101073.38;5100010;27;45820;-54
2022/11/29 00:50:40;;;;;;;;;7.33;5.00;;;;;10.84;70.67;101073.38;5100341;27;45224;-58
2022/11/29 00:53:05;;;;;;;;;5.67;5.33;;;;;10.85;70.56;101075.03;5100321;27;45402;-52
2022/11/29 00:55:31;;;;;;;;;3.00;2.00;;;;;10.85;70.75;101077.72;5099873;27;47185;-59
2022/11/29 00:57:56;;;;;;;;;1.67;0.00;;;;;10.84;70.57;101070.72;5100120;27;45427;-57
2022/11/29 01:00:21;;;;;;;;;7.33;5.00;;;;;10.83;70.67;101075.19;5099913;27;45431;-58
2022/11/29 01:02:47;;;;;;;;;6.00;3.67;;;;;10.82;70.84;101075.31;5100134;27;45272;-58
2022/11/29 01:05:12;;;;;;;;;4.67;2.67;;;;;10.82;70.84;101075.31;5099755;27;45933;-59
2022/11/29 01:07:37;;;;;;;;;6.00;3.00;;;;;10.80;70.84;101067.47;5099808;27;45440;-57
2022/11/29 01:10:04;;;;;;;;;9.00;3.00;;;;;10.82;70.95;101077.97;5099909;27;45301;-57
2022/11/29 01:12:29;;;;;;;;;6.00;3.33;;;;;10.79;71.06;101072.94;5100126;27;45370;-56
2022/11/29 01:14:54;;;;;;;;;7.00;3.00;;;;;10.82;70.89;101073.50;5099547;27;45382;-54
2022/11/29 01:17:20;;;;;;;;;6.00;4.67;;;;;10.85;71.16;101075.03;5099440;27;45354;-56
2022/11/29 01:19:45;;;;;;;;;3.00;3.00;;;;;10.86;70.96;101074.06;5100167;27;45484;-53
2022/11/29 01:22:12;;;;;;;;;10.67;5.00;;;;;10.84;70.59;101076.88;5100147;27;45355;-56
2022/11/29 01:24:37;;;;;;;;;7.00;5.67;;;;;10.85;71.03;101080.38;5099318;27;45467;-56
2022/11/29 01:27:03;;;;;;;;;7.67;4.33;;;;;10.82;70.98;101070.00;5099550;27;45258;-53
2022/11/29 01:29:28;;;;;;;;;3.00;3.00;;;;;10.86;71.24;101084.69;5099480;27;45434;-59
2022/11/29 01:31:53;;;;;;;;;5.00;3.67;;;;;10.85;71.05;101093.69;5098627;27;45377;-50
2022/11/29 01:34:19;;;;;;;;;6.00;3.00;;;;;10.87;71.09;101095.22;5099268;27;46190;-56
2022/11/29 01:36:44;;;;;;;;;5.33;3.00;;;;;10.87;70.53;101091.69;5099344;27;45390;-49
2022/11/29 01:39:09;;;;;;;;;4.00;3.67;;;;;10.90;70.86;101096.75;5099645;27;45290;-58
2022/11/29 01:41:36;;;;;;;;;3.00;3.00;;;;;10.81;71.30;101079.81;5099272;27;45480;-51
2022/11/29 01:44:27;;;;;;;;;5.33;5.33;;;;;10.90;71.01;101094.94;5099064;27;46281;-50
2022/11/29 01:46:53;;;;;;;;;8.33;3.00;;;;;10.80;70.84;101082.63;5098828;27;45287;-52
2022/11/29 01:49:25;;;;;;;;;8.33;3.67;;;;;10.92;71.24;101105.44;5099263;27;45531;-53
2022/11/29 01:51:59;;;;;;;;;5.67;3.00;;;;;10.92;70.58;101108.13;5099221;27;45357;-52
2022/11/29 01:54:26;;;;;;;;;8.33;3.00;;;;;10.92;70.95;101111.63;5097947;27;46103;-59
2022/11/29 01:56:52;;;;;;;;;5.00;3.00;;;;;10.87;71.27;101107.66;5098700;27;45246;-57
2022/11/29 01:59:21;;;;;;;;;6.33;4.33;;;;;10.85;70.77;101106.97;5098847;27;45487;-59
2022/11/29 02:01:46;;;;;;;;;7.33;6.00;;;;;10.93;70.82;101126.59;5099329;27;45540;-56
2022/11/29 02:04:12;;;;;;;;;4.33;3.00;;;;;10.93;71.05;101126.59;5098630;27;46126;-58
2022/11/29 02:06:40;;;;;;;;;2.00;1.67;;;;;10.96;70.99;101128.16;5098757;27;45350;-56
2022/11/29 02:09:19;;;;;;;;;4.00;3.33;;;;;10.91;70.48;101128.56;5099022;27;45471;-53
2022/11/29 02:12:15;;;;;;;;;4.33;3.00;;;;;10.94;70.79;101125.59;5099013;27;45315;-53
2022/11/29 02:15:04;;;;;;;;;4.33;3.00;;;;;10.93;70.94;101131.09;5098668;27;45233;-53
2022/11/29 02:18:11;;;;;;;;;5.00;3.00;;;;;10.93;70.70;101134.59;5098351;27;45542;-55
2022/11/29 02:21:09;;;;;;;;;6.33;2.00;;;;;10.95;70.83;101137.94;5035350;28;45321;-54
2022/11/29 02:23:35;;;;;;;;;5.33;2.00;;;;;10.95;70.55;101135.28;5035590;28;45512;-52
2022/11/29 02:26:37;;;;;;;;;3.67;2.33;;;;;10.94;71.02;101132.75;5035496;28;45320;-50
2022/11/29 02:29:33;;;;;;;;;4.67;4.00;;;;;10.91;70.76;101125.91;5035623;28;45283;-56
2022/11/29 02:32:37;;;;;;;;;2.00;2.00;;;;;10.91;70.92;101133.03;5035588;28;45447;-50
2022/11/29 02:35:27;;;;;;;;;5.33;2.33;;;;;10.89;70.57;101127.84;5035807;28;45305;-56
2022/11/29 02:38:20;;;;;;;;;2.00;2.00;;;;;10.87;70.71;101124.50;5035205;28;45586;-50
2022/11/29 02:41:19;;;;;;;;;3.00;2.00;;;;;10.84;70.52;101127.44;5035133;28;45539;-52
2022/11/29 02:44:04;;;;;;;;;7.00;3.00;;;;;10.79;70.77;101126.16;5035189;28;45360;-58
2022/11/29 02:46:50;;;;;;;;;5.00;5.00;;;;;10.77;70.81;101128.13;5035319;28;45577;-48
2022/11/29 02:50:11;;;;;;;;;5.33;3.00;;;;;10.78;70.70;101135.13;5034825;28;47385;-58
2022/11/29 02:53:14;;;;;;;;;3.00;3.00;;;;;10.77;70.95;101138.75;4956112;28;45691;-50
2022/11/29 02:55:45;;;;;;;;;3.00;3.00;;;;;10.74;70.91;101130.09;4956295;28;45374;-48
2022/11/29 02:58:34;;;;;;;;;2.33;2.33;;;;;10.74;70.62;101135.41;4998362;28;45529;-49
2022/11/29 03:01:02;;;;;;;;;7.00;5.33;;;;;10.76;70.63;101145.06;5014697;28;47206;-51
2022/11/29 03:03:42;;;;;;;;;6.00;3.00;;;;;10.76;70.79;101140.59;5014805;28;45517;-56
2022/11/29 03:06:10;;;;;;;;;6.00;3.67;;;;;10.79;70.76;101147.44;5014891;28;45361;-57
2022/11/29 03:08:53;;;;;;;;;3.67;3.67;;;;;10.80;70.80;101149.16;5015205;28;45368;-59
2022/11/29 03:11:40;;;;;;;;;6.00;2.67;;;;;10.81;70.69;101154.31;5014590;28;46362;-57
2022/11/29 03:14:24;;;;;;;;;5.00;3.67;;;;;10.83;70.79;101155.03;5014861;28;45225;-56
2022/11/29 03:17:19;;;;;;;;;6.00;5.33;;;;;10.84;70.93;101155.88;5014775;28;45399;-58
2022/11/29 03:20:11;;;;;;;;;4.33;4.33;;;;;10.85;70.62;101155.72;4995008;28;45360;-58
2022/11/29 03:22:40;;;;;;;;;4.33;3.00;;;;;10.86;70.62;101153.91;5005603;28;45725;-58
2022/11/29 03:25:20;;;;;;;;;4.00;4.00;;;;;10.87;70.57;101151.13;5054455;28;45436;-53
2022/11/29 03:28:00;;;;;;;;;8.00;6.33;;;;;10.88;70.44;101158.13;5055023;28;45442;-59
2022/11/29 03:30:30;;;;;;;;;13.33;11.00;;;;;10.77;70.58;101146.75;5054885;28;45307;-59
2022/11/29 03:32:58;;;;;;;;;22.33;17.00;;;;;10.80;70.77;101157.97;5054312;28;46311;-55
2022/11/29 03:35:34;;;;;;;;;28.00;23.00;;;;;10.77;70.96;101162.72;5054485;28;45293;-56
2022/11/29 03:38:20;;;;;;;;;17.33;15.67;;;;;10.73;70.92;101165.66;5054652;28;45403;-57
2022/11/29 03:41:13;;;;;;;;;22.33;20.00;;;;;10.76;71.04;101169.03;5054601;28;45321;-58
2022/11/29 03:43:46;;;;;;;;;27.00;18.67;;;;;10.76;71.29;101166.38;5054313;28;46213;-57
2022/11/29 03:46:18;;;;;;;;;16.00;16.00;;;;;10.75;71.35;101165.53;5054268;28;45359;-54
2022/11/29 03:48:52;;;;;;;;;17.00;13.00;;;;;10.79;71.51;101176.72;5054370;28;45464;-58
2022/11/29 03:51:46;;;;;;;;;19.33;16.67;;;;;10.82;71.06;101179.94;5054665;28;45491;-58
2022/11/29 03:54:21;;;;;;;;;19.00;15.67;;;;;10.82;71.10;101179.94;5054216;28;45477;-56
2022/11/29 03:56:47;;;;;;;;;16.00;14.00;;;;;10.83;71.28;101180.78;5086637;27;45428;-57
2022/11/29 03:59:36;;;;;;;;;17.00;13.00;;;;;10.84;71.15;101182.50;5097567;27;45446;-56
2022/11/29 04:02:19;;;;;;;;;8.67;7.00;;;;;10.85;71.26;101189.50;5097403;27;45454;-57
2022/11/29 04:05:25;;;;;;;;;9.00;6.00;;;;;10.74;71.14;101169.16;5096871;27;45397;-57
2022/11/29 04:07:50;;;;;;;;;7.00;6.00;;;;;10.87;70.72;101196.38;5072818;27;45336;-56
2022/11/29 04:10:24;;;;;;;;;8.00;5.00;;;;;10.87;70.70;101193.69;5097163;27;45340;-58
2022/11/29 04:13:20;;;;;;;;;4.33;4.33;;;;;10.89;70.59;101191.72;5097360;27;45314;-54
2022/11/29 04:16:23;;;;;;;;;6.00;5.00;;;;;10.90;70.63;101198.72;5096726;27;46162;-53
2022/11/29 04:19:25;;;;;;;;;10.00;5.67;;;;;10.90;70.67;101192.56;5098122;27;45411;-49
2022/11/29 04:22:15;;;;;;;;;3.67;3.00;;;;;10.91;70.57;101203.09;5100432;27;45290;-59
2022/11/29 04:24:43;;;;;;;;;7.33;6.00;;;;;10.94;70.45;101212.63;5100686;27;45447;-57
2022/11/29 04:27:17;;;;;;;;;7.33;6.00;;;;;10.95;70.19;101211.63;5100155;27;47394;-58
2022/11/29 04:30:21;;;;;;;;;5.00;5.00;;;;;10.95;70.31;101216.94;5100348;27;45251;-53
2022/11/29 04:33:24;;;;;;;;;7.33;3.00;;;;;10.96;70.14;101216.00;5100688;27;45282;-56
2022/11/29 04:35:58;;;;;;;;;9.00;6.00;;;;;10.96;70.08;101218.66;5100580;27;45309;-53
2022/11/29 04:38:59;;;;;;;;;7.00;3.00;;;;;10.94;69.82;101215.28;5099925;27;46186;-57
2022/11/29 04:41:42;;;;;;;;;6.00;3.67;;;;;10.98;69.86;101225.50;5100132;27;45448;-58
2022/11/29 04:44:16;;;;;;;;;7.00;3.00;;;;;10.99;69.83;101226.34;5100464;27;45242;-54
2022/11/29 04:46:58;;;;;;;;;9.33;5.33;;;;;10.99;69.90;101231.66;5100131;27;45344;-57
2022/11/29 04:49:29;;;;;;;;;6.67;4.33;;;;;11.00;69.53;101238.69;5099870;27;47292;-57
2022/11/29 04:52:12;;;;;;;;;3.67;3.67;;;;;11.00;69.45;101230.72;5100032;27;45528;-56
2022/11/29 04:55:13;;;;;;;;;6.67;6.67;;;;;11.01;69.61;101229.72;5100075;27;45241;-57
2022/11/29 04:57:48;;;;;;;;;3.00;3.00;;;;;11.02;69.84;101231.41;5100141;27;45341;-59
2022/11/29 05:00:22;;;;;;;;;5.67;5.67;;;;;11.02;69.64;101235.88;5099920;27;46114;-57
2022/11/29 05:02:54;;;;;;;;;7.00;2.67;;;;;10.99;70.13;101240.50;5100200;27;45482;-59
2022/11/29 05:05:38;;;;;;;;;8.00;6.00;;;;;11.02;69.88;101247.38;5100243;27;45182;-58
2022/11/29 05:08:06;;;;;;;;;8.67;6.33;;;;;11.02;69.65;101244.72;5099943;27;45256;-54
2022/11/29 05:11:08;;;;;;;;;6.67;6.00;;;;;11.03;70.03;101245.56;5099460;27;45326;-58
2022/11/29 05:13:57;;;;;;;;;7.00;5.67;;;;;11.02;70.04;101250.03;5099635;27;45323;-56
2022/11/29 05:16:44;;;;;;;;;8.33;7.00;;;;;11.02;70.03;101255.38;5099746;27;45312;-57
2022/11/29 05:19:28;;;;;;;;;8.67;6.67;;;;;11.02;69.89;101260.69;5098238;27;45383;-58
2022/11/29 05:22:18;;;;;;;;;11.67;11.00;;;;;11.03;70.04;101267.69;5099326;27;47053;-58
2022/11/29 05:25:17;;;;;;;;;18.67;11.33;;;;;11.03;70.31;101266.84;5099337;27;45622;-57
2022/11/29 05:28:24;;;;;;;;;10.33;9.67;;;;;11.01;69.93;101267.00;5099519;27;45410;-58
2022/11/29 05:31:04;;;;;;;;;10.33;6.67;;;;;10.99;70.30;101271.59;5099547;27;45397;-58
2022/11/29 05:34:05;;;;;;;;;15.33;7.67;;;;;10.98;70.26;101264.59;5099182;27;46049;-56
2022/11/29 05:36:54;;;;;;;;;10.00;8.33;;;;;10.98;69.96;101277.91;5099090;27;45401;-59
2022/11/29 05:39:32;;;;;;;;;8.67;8.67;;;;;10.96;70.48;101286.03;5099344;27;45244;-58
2022/11/29 05:42:09;;;;;;;;;10.00;7.00;;;;;10.96;70.25;101286.03;5099551;27;45365;-57
2022/11/29 05:44:47;;;;;;;;;16.00;11.33;;;;;10.95;70.11;101291.47;5098885;27;46308;-57
2022/11/29 05:47:19;;;;;;;;;15.00;10.00;;;;;10.84;69.93;101283.63;5098854;27;45191;-58
2022/11/29 05:50:08;;;;;;;;;13.67;8.67;;;;;10.91;69.94;101298.06;5098934;27;45344;-55
2022/11/29 05:52:40;;;;;;;;;10.67;8.67;;;;;10.89;70.18;101300.03;5099371;27;45701;-58
2022/11/29 05:55:24;;;;;;;;;12.33;11.00;;;;;10.87;70.07;101302.84;5099022;27;45348;-55
2022/11/29 05:57:57;;;;;;;;;16.33;10.00;;;;;10.85;70.21;101304.78;5098871;27;45417;-58
2022/11/29 06:00:26;;;;;;;;;13.33;8.00;;;;;10.85;70.19;101309.25;5098960;27;45474;-58
2022/11/29 06:03:14;;;;;;;;;13.33;10.00;;;;;10.82;70.15;101310.34;5099052;27;45388;-58
2022/11/29 06:05:57;;;;;;;;;18.33;16.33;;;;;10.70;70.28;101300.78;5098595;27;45461;-56
2022/11/29 06:08:41;;;;;;;;;25.33;22.33;;;;;10.65;70.43;101309.16;5098505;27;45351;-57
2022/11/29 06:11:20;;;;;;;;;26.00;20.33;;;;;10.60;70.69;101321.19;5098740;27;45422;-58
2022/11/29 06:13:57;;;;;;;;;24.33;21.00;;;;;10.53;71.08;101325.34;5098937;27;45412;-57
2022/11/29 06:16:52;;;;;;;;;31.33;24.67;;;;;10.44;71.05;101326.97;5098684;27;46276;-56
2022/11/29 06:19:51;;;;;;;;;29.67;23.33;;;;;10.36;71.33;101324.13;5098528;27;45499;-58
2022/11/29 06:22:36;;;;;;;;;23.33;22.67;;;;;10.31;71.57;101329.00;5098408;27;45306;-58
2022/11/29 06:25:15;;;;;;;;;30.67;23.00;;;;;10.16;71.71;101326.66;5098745;27;45344;-58
2022/11/29 06:27:56;;;;;;;;;26.33;21.33;;;;;10.14;72.20;101347.19;5097031;27;47306;-58
2022/11/29 06:30:28;;;;;;;;;30.00;24.67;;;;;10.06;71.99;101335.53;5098518;27;45440;-57
2022/11/29 06:33:02;;;;;;;;;27.00;23.67;;;;;9.99;72.66;101345.84;5097475;27;45413;-58
2022/11/29 06:35:34;;;;;;;;;26.67;20.00;;;;;9.92;72.55;101347.31;5098872;27;45478;-59
2022/11/29 06:38:08;;;;;;;;;23.00;22.33;;;;;9.88;73.22;101348.53;5098604;27;46231;-58
2022/11/29 06:40:34;;;;;;;;;27.67;25.00;;;;;9.82;73.46;101346.38;5097806;27;45439;-55
2022/11/29 06:42:59;;;;;;;;;33.75;27.25;;;;;9.79;73.59;101355.47;5098307;27;45349;-58
2022/11/29 06:45:25;;;;;;;;;31.50;25.00;;;;;9.74;73.82;101353.19;5098589;27;45367;-58
2022/11/29 06:48:02;;;;;;;;;22.67;20.67;;;;;9.65;73.99;101353.94;5098037;27;46004;-58
2022/11/29 06:50:36;;;;;;;;;29.25;23.75;;;;;9.67;73.85;101367.09;5098074;27;45467;-56
2022/11/29 06:53:15;;;;;;;;;27.50;26.00;;;;;9.62;73.94;101359.50;5098191;27;45698;-55
2022/11/29 06:55:54;;;;;;;;;26.25;26.25;;;;;9.61;74.47;101368.44;5098335;27;45362;-56
2022/11/29 06:58:44;;;;;;;;;28.25;26.00;;;;;9.56;74.40;101367.13;5097902;27;46370;-57
2022/11/29 07:01:24;;;;;;;;;33.00;24.75;;;;;9.56;74.46;101367.13;5097921;27;45297;-58
2022/11/29 07:03:58;;;;;;;;;27.25;25.50;;;;;9.55;74.24;101379.56;5098112;27;45230;-58
2022/11/29 07:06:26;;;;;;;;;26.00;22.50;;;;;9.55;74.32;101382.22;5097969;27;45264;-59
2022/11/29 07:08:57;;;;;;;;;24.75;22.50;;;;;9.52;74.23;101378.94;5097907;27;45343;-54
2022/11/29 07:11:23;;;;;;;;;34.25;29.25;;;;;9.49;74.09;101385.38;5097792;27;45459;-55
2022/11/29 07:13:49;;;;;;;;;26.25;26.25;;;;;9.47;74.51;101382.81;5097631;27;45411;-58
2022/11/29 07:16:25;;;;;;;;;26.00;23.50;;;;;9.45;74.68;101387.44;5096738;27;45461;-59
2022/11/29 07:19:01;;;;;;;;;28.25;23.50;;;;;9.38;75.05;101380.06;5097685;27;45384;-54
2022/11/29 07:22:04;;;;;;;;;42.50;29.75;;;;;9.47;74.26;101390.78;5097427;27;45363;-54
2022/11/29 07:24:44;;;;;;;;;26.50;24.50;;;;;9.47;74.20;101387.28;5097630;27;45357;-56
2022/11/29 07:27:20;;;;;;;;;35.75;30.50;;;;;9.47;74.54;101395.25;5097607;27;45295;-54
2022/11/29 07:30:04;;;;;;;;;34.75;31.00;;;;;9.42;74.29;101395.63;5095679;27;47109;-53
2022/11/29 07:32:38;;;;;;;;;37.50;31.50;;;;;9.39;74.22;101395.88;5097339;27;45384;-60
2022/11/29 07:35:08;;;;;;;;;40.50;28.75;;;;;9.38;74.47;101394.19;5095266;27;45467;-56
2022/11/29 07:38:16;;;;;;;;;31.25;24.75;;;;;9.40;74.92;101402.91;5096907;27;45383;-55
2022/11/29 07:41:05;;;;;;;;;38.50;32.75;;;;;9.44;74.88;101403.50;5014042;28;46299;-57
2022/11/29 07:43:45;;;;;;;;;30.00;23.25;;;;;9.44;75.14;101401.69;5014007;28;45427;-59
2022/11/29 07:46:10;;;;;;;;;29.75;29.00;;;;;9.49;75.26;101402.16;5014437;28;45403;-55
2022/11/29 07:48:36;;;;;;;;;31.75;26.00;;;;;9.52;74.73;101401.03;5014263;28;45505;-59
2022/11/29 07:51:01;;;;;;;;;39.00;30.25;;;;;9.53;75.17;101399.25;5013177;28;45986;-57
2022/11/29 07:53:27;;;;;;;;;38.00;31.75;;;;;9.55;74.52;101415.91;5012476;28;45902;-56
2022/11/29 07:55:53;;;;;;;;;34.25;26.75;;;;;9.53;74.25;101420.50;5015060;28;45417;-57
2022/11/29 07:58:19;;;;;;;;;34.00;26.75;;;;;9.53;74.41;101421.34;5015622;28;45478;-59
2022/11/29 08:00:44;;;;;;;;;32.25;28.50;;;;;9.48;74.47;101421.72;5014738;28;46446;-60
2022/11/29 08:03:10;;;;;;;;;35.75;26.75;;;;;9.52;74.88;101422.28;5014919;28;45512;-59
2022/11/29 08:05:37;;;;;;;;;35.00;28.50;;;;;9.57;74.88;101432.56;5015389;28;45569;-54
2022/11/29 08:08:03;;;;;;;;;36.25;31.25;;;;;9.56;74.58;101423.72;5014676;28;45376;-57
2022/11/29 08:10:28;;;;;;;;;35.00;30.75;;;;;9.61;74.82;101428.69;5014673;28;46134;-58
2022/11/29 08:12:54;;;;;;;;;42.75;34.50;;;;;9.62;74.52;101420.59;5014857;28;45644;-60
2022/11/29 08:15:24;;;;;;;;;24.50;21.75;;;;;9.70;73.70;101425.28;5077570;27;45404;-57
2022/11/29 08:17:50;;;;;;;;;32.50;31.50;;;;;9.67;74.00;101417.56;5099348;27;45522;-56
2022/11/29 08:20:15;;;;;;;;;37.25;27.75;;;;;9.70;74.10;101439.41;5096649;27;45656;-56
2022/11/29 08:22:41;;;;;;;;;32.00;23.00;;;;;9.72;74.42;101439.28;5097881;27;45472;-59
2022/11/29 08:25:08;;;;;;;;;26.33;21.00;;;;;9.71;74.16;101438.44;5098449;27;45489;-59
2022/11/29 08:27:34;;;;;;;;;42.50;28.75;;;;;9.72;74.25;101442.78;5097632;27;45390;-54
2022/11/29 08:30:00;;;;;;;;;49.00;39.25;;;;;9.69;73.87;101445.72;5097766;27;47544;-58
2022/11/29 08:32:26;;;;;;;;;48.50;37.25;;;;;9.62;73.86;101449.81;5096040;27;45414;-57
2022/11/29 08:34:51;;;;;;;;;44.25;38.00;;;;;9.64;74.38;101463.81;5097472;27;45492;-58
2022/11/29 08:37:16;;;;;;;;;40.00;33.75;;;;;9.64;74.36;101461.16;5096870;27;45444;-59
2022/11/29 08:39:42;;;;;;;;;55.00;41.00;;;;;9.60;73.66;101462.38;5097722;27;47194;-59
2022/11/29 08:42:08;;;;;;;;;50.25;40.75;;;;;9.58;74.50;101464.31;5096761;27;45479;-60
2022/11/29 08:44:33;;;;;;;;;48.50;34.75;;;;;9.56;74.42;101468.88;5097036;27;45532;-54
2022/11/29 08:50:01;;;;;;;;;50.75;41.25;;;;;9.58;74.01;101479.41;5096364;27;45428;-52
2022/11/29 08:55:18;;;;;;;;;41.25;32.25;;;;;9.60;74.47;101491.59;5095656;27;45546;-58
2022/11/29 08:57:44;;;;;;;;;45.25;37.50;;;;;9.61;73.98;101492.47;5093678;27;45496;-49
2022/11/29 09:00:11;;;;;;;;;41.50;39.00;;;;;9.61;74.17;101497.78;5096019;27;47039;-60
2022/11/29 09:02:36;;;;;;;;;62.00;42.50;;;;;9.62;74.18;101505.59;5095876;27;45377;-51
2022/11/29 09:05:02;;;;;;;;;47.25;39.00;;;;;9.61;74.41;101503.91;5095203;27;45338;-53
2022/11/29 09:07:28;;;;;;;;;51.00;38.75;;;;;9.62;74.21;101507.41;5096212;27;45549;-51
2022/11/29 09:09:53;;;;;;;;;42.50;35.75;;;;;9.60;74.12;101510.19;5095777;27;45884;-59
2022/11/29 09:12:19;;;;;;;;;44.50;36.25;;;;;9.58;74.01;101512.13;5095909;27;45388;-57
2022/11/29 09:14:44;;;;;;;;;53.00;41.50;;;;;9.56;73.73;101522.00;5096026;27;45437;-59
2022/11/29 09:17:09;;;;;;;;;42.75;32.50;;;;;9.57;73.92;101520.22;5096084;27;45512;-54
2022/11/29 09:19:35;;;;;;;;;46.00;37.75;;;;;9.57;73.91;101521.06;5095583;27;46227;-56
2022/11/29 09:22:00;;;;;;;;;56.75;40.00;;;;;9.57;73.92;101522.88;5095717;27;45511;-54
2022/11/29 09:24:25;;;;;;;;;45.25;33.75;;;;;9.58;74.47;101522.75;5095689;27;45443;-52
2022/11/29 09:26:51;;;;;;;;;40.75;25.25;;;;;9.60;73.57;101523.47;5096083;27;45445;-58
2022/11/29 09:29:16;;;;;;;;;33.00;27.50;;;;;9.64;74.04;101532.03;5095181;27;45448;-51
2022/11/29 09:31:45;;;;;;;;;29.00;23.25;;;;;9.68;74.31;101536.13;5095645;27;45519;-54
2022/11/29 09:34:15;;;;;;;;;38.25;23.50;;;;;9.69;73.53;101532.50;5096022;27;45510;-54
2022/11/29 09:36:43;;;;;;;;;35.75;26.25;;;;;9.75;73.65;101538.19;5095426;27;45573;-50
2022/11/29 09:39:11;;;;;;;;;42.00;35.75;;;;;9.75;73.30;101538.19;5095562;27;46248;-53
2022/11/29 09:41:58;;;;;;;;;41.00;34.00;;;;;9.79;73.19;101548.59;5095501;27;45456;-49
2022/11/29 09:44:48;;;;;;;;;46.50;34.25;;;;;9.79;73.19;101552.09;5095409;27;45546;-56
2022/11/29 09:47:17;;;;;;;;;38.50;28.50;;;;;9.80;73.11;101552.94;5053667;27;1187612;-47
2022/11/29 09:50:02;;;;;;;;;40.50;29.00;;;;;9.82;73.72;101556.28;5096238;27;45570;-55
2022/11/29 09:52:40;;;;;;;;;40.75;35.00;;;;;9.79;72.86;101548.59;5082756;27;45532;-53
2022/11/29 09:55:18;;;;;;;;;44.25;36.25;;;;;9.86;72.99;101566.59;5095875;27;45429;-49
2022/11/29 09:57:45;;;;;;;;;35.00;28.50;;;;;9.89;73.10;101566.31;5096600;27;45262;-52
2022/11/29 10:00:16;;;;;;;;;40.25;30.75;;;;;9.95;72.80;101565.00;5095895;27;46849;-48
2022/11/29 10:02:51;;;;;;;;;39.75;31.00;;;;;10.00;73.24;101560.16;5095750;27;45943;-48
2022/11/29 10:05:20;;;;;;;;;34.00;29.50;;;;;10.07;72.75;101577.31;5096069;27;45464;-49
2022/11/29 10:07:57;;;;;;;;;34.75;26.75;;;;;10.13;72.64;101581.28;5096325;27;45568;-47
2022/11/29 10:10:42;;;;;;;;;38.50;25.00;;;;;10.13;72.63;101573.31;5095850;27;46152;-46
2022/11/29 10:13:32;;;;;;;;;34.50;30.00;;;;;10.26;72.26;101586.50;5095722;27;45454;-48
2022/11/29 10:16:11;;;;;;;;;36.50;28.50;;;;;10.32;71.78;101588.66;5095222;27;45552;-52
2022/11/29 10:18:48;;;;;;;;;38.75;26.75;;;;;10.37;71.68;101589.97;5096009;27;45923;-49
2022/11/29 10:21:20;;;;;;;;;25.67;20.33;;;;;10.40;71.43;101586.22;5095594;27;46064;-49
2022/11/29 10:23:50;;;;;;;;;38.75;26.25;;;;;10.47;71.48;101592.72;5095984;27;45500;-56
2022/11/29 10:26:16;;;;;;;;;39.00;28.00;;;;;10.44;70.98;101580.50;5095823;27;45465;-47
2022/11/29 10:28:44;;;;;;;;;32.25;25.75;;;;;10.56;71.06;101594.63;5095716;27;45466;-56
2022/11/29 10:31:25;;;;;;;;;29.00;22.67;;;;;10.57;70.69;101588.31;5094196;27;46227;-61
2022/11/29 10:33:52;;;;;;;;;29.67;25.67;;;;;10.61;70.66;101591.59;5095495;27;45400;-60
2022/11/29 10:36:52;;;;;;;;;23.33;18.67;;;;;10.63;70.17;101590.50;5095433;27;45377;-61
2022/11/29 10:39:27;;;;;;;;;17.33;15.00;;;;;10.66;70.17;101595.59;5095287;27;45428;-61
2022/11/29 10:41:55;;;;;;;;;23.00;19.67;;;;;10.66;70.00;101590.25;5095098;27;45879;-62
2022/11/29 10:44:23;;;;;;;;;27.33;22.00;;;;;10.73;69.51;101603.88;5095230;27;45507;-60
2022/11/29 10:46:48;;;;;;;;;22.33;18.67;;;;;10.74;69.28;101594.91;5095365;27;45513;-60
2022/11/29 10:49:17;;;;;;;;;24.67;18.67;;;;;10.76;69.45;101600.13;5095656;27;45380;-62
2022/11/29 10:51:44;;;;;;;;;26.33;19.67;;;;;10.81;68.89;101600.59;5095122;27;46141;-61
2022/11/29 10:54:32;;;;;;;;;24.33;21.33;;;;;10.77;69.04;101591.19;5095104;27;45796;-61
2022/11/29 10:57:01;;;;;;;;;21.00;18.67;;;;;10.68;68.64;101585.63;5094073;27;45762;-61
2022/11/29 10:59:29;;;;;;;;;23.33;19.00;;;;;10.79;68.52;101600.72;5095685;27;45447;-60
2022/11/29 11:01:56;;;;;;;;;27.33;20.33;;;;;10.74;68.89;101594.91;5094871;27;46190;-62
2022/11/29 11:04:30;;;;;;;;;27.67;18.67;;;;;10.81;68.82;101603.25;5094895;27;46272;-48
2022/11/29 11:07:00;;;;;;;;;26.00;19.67;;;;;10.82;68.65;101597.78;5094507;27;45397;-61
2022/11/29 11:09:37;;;;;;;;;27.00;24.33;;;;;10.84;68.47;101605.66;5095468;27;45401;-53
2022/11/29 11:12:14;;;;;;;;;23.00;22.00;;;;;10.85;68.38;101608.19;5094454;27;45948;-57
2022/11/29 11:14:40;;;;;;;;;27.00;22.00;;;;;10.79;68.54;101590.09;5093959;27;45455;-58
2022/11/29 11:17:25;;;;;;;;;25.67;18.67;;;;;10.90;68.51;101605.16;5094901;27;45465;-54
2022/11/29 11:20:17;;;;;;;;;27.33;20.33;;;;;10.83;68.63;101590.66;5095049;27;45800;-57
2022/11/29 11:22:43;;;;;;;;;25.00;16.33;;;;;10.95;68.24;101609.09;5094627;27;46194;-59
2022/11/29 11:25:33;;;;;;;;;22.67;17.33;;;;;10.98;68.65;101613.34;5094738;27;45534;-53
2022/11/29 11:28:14;;;;;;;;;28.67;22.33;;;;;10.99;68.11;101625.66;5094908;27;45510;-55
2022/11/29 11:30:48;;;;;;;;;25.33;21.00;;;;;10.97;68.28;101607.19;5094005;27;45643;-62
2022/11/29 11:33:26;;;;;;;;;34.00;25.33;;;;;10.99;68.20;101607.03;5094544;27;45731;-53
2022/11/29 11:36:01;;;;;;;;;24.00;24.00;;;;;10.91;68.38;101590.84;5094575;27;45507;-61
2022/11/29 11:38:27;;;;;;;;;23.33;19.67;;;;;11.00;67.64;101608.75;5094356;27;45694;-60
2022/11/29 11:44:44;;;;;;;;;26.67;22.67;;;;;10.98;67.92;101605.34;5092498;27;45707;-59
2022/11/29 11:47:34;;;;;;;;;22.00;17.33;;;;;10.97;67.90;101599.19;5094200;27;45538;-62
2022/11/29 11:50:02;;;;;;;;;21.67;17.67;;;;;10.98;68.03;101600.03;5092000;27;45450;-49
2022/11/29 11:52:33;;;;;;;;;32.00;23.00;;;;;11.01;68.34;101606.94;5094778;27;45386;-61
2022/11/29 11:55:04;;;;;;;;;26.67;24.00;;;;;10.94;68.37;101587.94;5094177;27;45474;-58
2022/11/29 11:57:30;;;;;;;;;30.00;18.00;;;;;11.06;68.07;101610.88;5094787;27;45495;-61
2022/11/29 11:59:58;;;;;;;;;26.50;24.00;;;;;11.11;68.16;101610.50;5094543;27;46635;-48
2022/11/29 12:02:24;;;;;;;;;30.00;23.67;;;;;11.15;67.75;101606.59;5094352;27;45564;-62
2022/11/29 12:04:52;;;;;;;;;29.33;24.00;;;;;11.20;67.64;101604.38;5094104;27;47180;-54
2022/11/29 12:07:31;;;;;;;;;30.67;23.33;;;;;11.27;67.37;101599.41;5094259;27;45635;-46